sensor_id;sensor_type;location;lat;lon;timestamp;P1;durP1;ratioP1;P2;durP2;ratioP2
20982;SDS011;10650;51.528;6.748;2023-02-22T00:00:45;109.47;;;46.80;;
20982;SDS011;10650;51.528;6.748;2023-02-22T00:03:16;91.22;;;43.70;;
20982;SDS011;10650;51.528;6.748;2023-02-22T00:05:52;89.00;;;43.53;;
20982;SDS011;10650;51.528;6.748;2023-02-22T00:08:23;86.90;;;41.97;;
20982;SDS011;10650;51.528;6.748;2023-02-22T00:10:55;96.32;;;44.58;;
20982;SDS011;10650;51.528;6.748;2023-02-22T00:13:23;87.32;;;42.53;;
20982;SDS011;10650;51.528;6.748;2023-02-22T00:15:54;103.70;;;45.20;;
20982;SDS011;10650;51.528;6.748;2023-02-22T00:18:22;111.25;;;47.17;;
20982;SDS011;10650;51.528;6.748;2023-02-22T00:20:53;97.28;;;45.33;;
20982;SDS011;10650;51.528;6.748;2023-02-22T00:23:22;107.97;;;46.45;;
20982;SDS011;10650;51.528;6.748;2023-02-22T00:25:50;87.70;;;42.05;;
20982;SDS011;10650;51.528;6.748;2023-02-22T00:28:18;94.43;;;43.88;;
20982;SDS011;10650;51.528;6.748;2023-02-22T00:30:46;100.28;;;43.92;;
20982;SDS011;10650;51.528;6.748;2023-02-22T00:33:14;112.20;;;46.53;;
20982;SDS011;10650;51.528;6.748;2023-02-22T00:35:43;85.70;;;42.00;;
20982;SDS011;10650;51.528;6.748;2023-02-22T00:38:12;86.07;;;41.45;;
20982;SDS011;10650;51.528;6.748;2023-02-22T00:40:42;83.45;;;41.67;;
20982;SDS011;10650;51.528;6.748;2023-02-22T00:43:10;96.55;;;42.88;;
20982;SDS011;10650;51.528;6.748;2023-02-22T00:45:38;103.68;;;44.72;;
20982;SDS011;10650;51.528;6.748;2023-02-22T00:48:06;103.55;;;45.67;;
20982;SDS011;10650;51.528;6.748;2023-02-22T00:50:34;85.78;;;41.78;;
20982;SDS011;10650;51.528;6.748;2023-02-22T00:53:03;77.88;;;40.38;;
20982;SDS011;10650;51.528;6.748;2023-02-22T00:55:33;84.60;;;40.67;;
20982;SDS011;10650;51.528;6.748;2023-02-22T00:58:03;75.05;;;39.50;;
20982;SDS011;10650;51.528;6.748;2023-02-22T01:00:33;79.22;;;38.65;;
20982;SDS011;10650;51.528;6.748;2023-02-22T01:03:02;79.63;;;39.08;;
20982;SDS011;10650;51.528;6.748;2023-02-22T01:05:31;86.32;;;39.70;;
20982;SDS011;10650;51.528;6.748;2023-02-22T01:08:00;80.88;;;39.97;;
20982;SDS011;10650;51.528;6.748;2023-02-22T01:10:29;89.50;;;41.45;;
20982;SDS011;10650;51.528;6.748;2023-02-22T01:12:57;89.60;;;41.58;;
20982;SDS011;10650;51.528;6.748;2023-02-22T01:15:28;83.72;;;40.70;;
20982;SDS011;10650;51.528;6.748;2023-02-22T01:17:56;78.88;;;39.35;;
20982;SDS011;10650;51.528;6.748;2023-02-22T01:20:26;78.45;;;38.17;;
20982;SDS011;10650;51.528;6.748;2023-02-22T01:22:56;91.40;;;41.00;;
20982;SDS011;10650;51.528;6.748;2023-02-22T01:25:26;82.45;;;38.90;;
20982;SDS011;10650;51.528;6.748;2023-02-22T01:27:55;77.85;;;37.53;;
20982;SDS011;10650;51.528;6.748;2023-02-22T01:30:25;78.57;;;38.53;;
20982;SDS011;10650;51.528;6.748;2023-02-22T01:32:55;75.30;;;36.88;;
20982;SDS011;10650;51.528;6.748;2023-02-22T01:35:24;86.40;;;40.03;;
20982;SDS011;10650;51.528;6.748;2023-02-22T01:37:54;102.55;;;42.33;;
20982;SDS011;10650;51.528;6.748;2023-02-22T01:40:24;109.43;;;44.88;;
20982;SDS011;10650;51.528;6.748;2023-02-22T01:42:54;99.05;;;43.05;;
20982;SDS011;10650;51.528;6.748;2023-02-22T01:48:21;96.93;;;40.70;;
20982;SDS011;10650;51.528;6.748;2023-02-22T01:50:55;109.57;;;42.85;;
20982;SDS011;10650;51.528;6.748;2023-02-22T01:53:26;104.88;;;42.90;;
20982;SDS011;10650;51.528;6.748;2023-02-22T01:56:04;104.43;;;41.42;;
20982;SDS011;10650;51.528;6.748;2023-02-22T01:58:33;94.03;;;39.60;;
20982;SDS011;10650;51.528;6.748;2023-02-22T02:01:02;89.85;;;39.08;;
20982;SDS011;10650;51.528;6.748;2023-02-22T02:03:32;103.35;;;41.17;;
20982;SDS011;10650;51.528;6.748;2023-02-22T02:06:04;73.40;;;35.88;;
20982;SDS011;10650;51.528;6.748;2023-02-22T02:08:39;109.00;;;41.45;;
20982;SDS011;10650;51.528;6.748;2023-02-22T02:11:15;112.82;;;42.53;;
20982;SDS011;10650;51.528;6.748;2023-02-22T02:13:46;93.90;;;39.78;;
20982;SDS011;10650;51.528;6.748;2023-02-22T02:16:16;99.00;;;39.97;;
20982;SDS011;10650;51.528;6.748;2023-02-22T02:18:48;98.80;;;40.03;;
20982;SDS011;10650;51.528;6.748;2023-02-22T02:24:29;86.93;;;37.65;;
20982;SDS011;10650;51.528;6.748;2023-02-22T02:27:13;72.18;;;34.95;;
20982;SDS011;10650;51.528;6.748;2023-02-22T02:33:07;102.85;;;42.58;;
20982;SDS011;10650;51.528;6.748;2023-02-22T02:35:47;121.43;;;50.60;;
20982;SDS011;10650;51.528;6.748;2023-02-22T02:38:20;91.53;;;38.38;;
20982;SDS011;10650;51.528;6.748;2023-02-22T02:40:57;71.22;;;34.60;;
20982;SDS011;10650;51.528;6.748;2023-02-22T02:43:33;79.55;;;35.25;;
20982;SDS011;10650;51.528;6.748;2023-02-22T02:46:06;99.65;;;39.53;;
20982;SDS011;10650;51.528;6.748;2023-02-22T02:48:41;67.53;;;33.67;;
20982;SDS011;10650;51.528;6.748;2023-02-22T02:51:14;69.80;;;35.67;;
20982;SDS011;10650;51.528;6.748;2023-02-22T02:53:45;72.72;;;34.63;;
20982;SDS011;10650;51.528;6.748;2023-02-22T02:56:16;96.15;;;38.80;;
20982;SDS011;10650;51.528;6.748;2023-02-22T02:58:45;94.97;;;39.20;;
20982;SDS011;10650;51.528;6.748;2023-02-22T03:01:18;81.28;;;36.97;;
20982;SDS011;10650;51.528;6.748;2023-02-22T03:04:09;91.72;;;37.72;;
20982;SDS011;10650;51.528;6.748;2023-02-22T03:09:52;138.00;;;36.90;;
20982;SDS011;10650;51.528;6.748;2023-02-22T03:12:35;112.32;;;32.58;;
20982;SDS011;10650;51.528;6.748;2023-02-22T03:15:12;94.15;;;30.38;;
20982;SDS011;10650;51.528;6.748;2023-02-22T03:17:50;94.25;;;28.65;;
20982;SDS011;10650;51.528;6.748;2023-02-22T03:20:24;118.43;;;31.00;;
20982;SDS011;10650;51.528;6.748;2023-02-22T03:22:58;89.85;;;26.95;;
20982;SDS011;10650;51.528;6.748;2023-02-22T03:25:32;418.23;;;45.30;;
20982;SDS011;10650;51.528;6.748;2023-02-22T03:28:04;170.48;;;30.92;;
20982;SDS011;10650;51.528;6.748;2023-02-22T03:30:37;96.22;;;27.95;;
20982;SDS011;10650;51.528;6.748;2023-02-22T03:35:41;640.35;;;47.97;;
20982;SDS011;10650;51.528;6.748;2023-02-22T03:38:14;150.45;;;31.15;;
20982;SDS011;10650;51.528;6.748;2023-02-22T03:40:46;521.53;;;52.00;;
20982;SDS011;10650;51.528;6.748;2023-02-22T03:43:20;315.02;;;39.33;;
20982;SDS011;10650;51.528;6.748;2023-02-22T03:45:52;765.80;;;63.85;;
20982;SDS011;10650;51.528;6.748;2023-02-22T03:48:24;543.22;;;55.83;;
20982;SDS011;10650;51.528;6.748;2023-02-22T03:51:00;189.25;;;35.08;;
20982;SDS011;10650;51.528;6.748;2023-02-22T03:53:29;351.38;;;42.13;;
20982;SDS011;10650;51.528;6.748;2023-02-22T03:56:02;228.05;;;39.05;;
20982;SDS011;10650;51.528;6.748;2023-02-22T03:58:35;134.30;;;36.33;;
20982;SDS011;10650;51.528;6.748;2023-02-22T04:01:05;203.95;;;41.17;;
20982;SDS011;10650;51.528;6.748;2023-02-22T04:03:32;142.90;;;37.97;;
20982;SDS011;10650;51.528;6.748;2023-02-22T04:06:01;159.68;;;39.53;;
20982;SDS011;10650;51.528;6.748;2023-02-22T04:08:30;283.92;;;44.97;;
20982;SDS011;10650;51.528;6.748;2023-02-22T04:10:57;356.00;;;50.65;;
20982;SDS011;10650;51.528;6.748;2023-02-22T04:13:26;247.13;;;45.65;;
20982;SDS011;10650;51.528;6.748;2023-02-22T04:15:54;468.45;;;52.90;;
20982;SDS011;10650;51.528;6.748;2023-02-22T04:18:22;496.08;;;59.83;;
20982;SDS011;10650;51.528;6.748;2023-02-22T04:20:49;389.90;;;52.15;;
20982;SDS011;10650;51.528;6.748;2023-02-22T04:23:19;199.75;;;44.85;;
20982;SDS011;10650;51.528;6.748;2023-02-22T04:25:47;339.25;;;52.97;;
20982;SDS011;10650;51.528;6.748;2023-02-22T04:28:14;93.35;;;36.58;;
20982;SDS011;10650;51.528;6.748;2023-02-22T04:30:42;84.40;;;34.40;;
20982;SDS011;10650;51.528;6.748;2023-02-22T04:33:11;98.70;;;35.33;;
20982;SDS011;10650;51.528;6.748;2023-02-22T04:35:39;354.63;;;46.03;;
20982;SDS011;10650;51.528;6.748;2023-02-22T04:38:07;316.30;;;43.80;;
20982;SDS011;10650;51.528;6.748;2023-02-22T04:40:37;246.32;;;45.25;;
20982;SDS011;10650;51.528;6.748;2023-02-22T04:43:05;349.50;;;53.63;;
20982;SDS011;10650;51.528;6.748;2023-02-22T04:45:33;365.67;;;53.75;;
20982;SDS011;10650;51.528;6.748;2023-02-22T04:48:01;148.15;;;40.20;;
20982;SDS011;10650;51.528;6.748;2023-02-22T04:50:28;205.07;;;43.40;;
20982;SDS011;10650;51.528;6.748;2023-02-22T04:52:56;116.25;;;38.13;;
20982;SDS011;10650;51.528;6.748;2023-02-22T04:55:24;255.45;;;43.40;;
20982;SDS011;10650;51.528;6.748;2023-02-22T04:57:54;164.57;;;39.40;;
20982;SDS011;10650;51.528;6.748;2023-02-22T05:00:22;186.30;;;38.70;;
20982;SDS011;10650;51.528;6.748;2023-02-22T05:02:50;358.60;;;50.88;;
20982;SDS011;10650;51.528;6.748;2023-02-22T05:05:19;281.70;;;44.78;;
20982;SDS011;10650;51.528;6.748;2023-02-22T05:07:48;80.47;;;29.60;;
20982;SDS011;10650;51.528;6.748;2023-02-22T05:10:16;173.57;;;36.05;;
20982;SDS011;10650;51.528;6.748;2023-02-22T05:12:44;216.27;;;37.42;;
20982;SDS011;10650;51.528;6.748;2023-02-22T05:15:15;156.13;;;33.22;;
20982;SDS011;10650;51.528;6.748;2023-02-22T05:17:44;153.18;;;32.85;;
20982;SDS011;10650;51.528;6.748;2023-02-22T05:20:15;99.95;;;30.52;;
20982;SDS011;10650;51.528;6.748;2023-02-22T05:22:47;257.33;;;38.90;;
20982;SDS011;10650;51.528;6.748;2023-02-22T05:25:17;125.07;;;31.77;;
20982;SDS011;10650;51.528;6.748;2023-02-22T05:27:49;207.27;;;36.80;;
20982;SDS011;10650;51.528;6.748;2023-02-22T05:32:51;110.20;;;32.22;;
20982;SDS011;10650;51.528;6.748;2023-02-22T05:35:20;194.55;;;37.28;;
20982;SDS011;10650;51.528;6.748;2023-02-22T05:37:48;96.68;;;32.22;;
20982;SDS011;10650;51.528;6.748;2023-02-22T05:40:17;78.50;;;31.33;;
20982;SDS011;10650;51.528;6.748;2023-02-22T05:42:47;110.35;;;34.40;;
20982;SDS011;10650;51.528;6.748;2023-02-22T05:45:15;90.70;;;32.40;;
20982;SDS011;10650;51.528;6.748;2023-02-22T05:47:46;248.57;;;45.17;;
20982;SDS011;10650;51.528;6.748;2023-02-22T05:50:14;208.23;;;42.47;;
20982;SDS011;10650;51.528;6.748;2023-02-22T05:52:42;78.72;;;31.73;;
20982;SDS011;10650;51.528;6.748;2023-02-22T05:55:12;199.35;;;39.70;;
20982;SDS011;10650;51.528;6.748;2023-02-22T05:57:41;77.63;;;31.15;;
20982;SDS011;10650;51.528;6.748;2023-02-22T06:00:09;155.13;;;36.85;;
20982;SDS011;10650;51.528;6.748;2023-02-22T06:02:42;84.70;;;30.15;;
20982;SDS011;10650;51.528;6.748;2023-02-22T06:05:11;209.25;;;40.00;;
20982;SDS011;10650;51.528;6.748;2023-02-22T06:07:39;91.22;;;30.42;;
20982;SDS011;10650;51.528;6.748;2023-02-22T06:10:09;236.98;;;42.75;;
20982;SDS011;10650;51.528;6.748;2023-02-22T06:12:39;124.80;;;35.38;;
20982;SDS011;10650;51.528;6.748;2023-02-22T06:15:07;238.73;;;44.28;;
20982;SDS011;10650;51.528;6.748;2023-02-22T06:17:35;79.30;;;31.48;;
20982;SDS011;10650;51.528;6.748;2023-02-22T06:20:03;81.75;;;33.33;;
20982;SDS011;10650;51.528;6.748;2023-02-22T06:22:32;118.80;;;37.38;;
20982;SDS011;10650;51.528;6.748;2023-02-22T06:25:01;82.13;;;32.38;;
20982;SDS011;10650;51.528;6.748;2023-02-22T06:27:29;145.15;;;43.10;;
20982;SDS011;10650;51.528;6.748;2023-02-22T06:29:57;86.47;;;36.28;;
20982;SDS011;10650;51.528;6.748;2023-02-22T06:32:25;123.30;;;40.83;;
20982;SDS011;10650;51.528;6.748;2023-02-22T06:34:53;90.85;;;36.53;;
20982;SDS011;10650;51.528;6.748;2023-02-22T06:37:21;77.70;;;33.88;;
20982;SDS011;10650;51.528;6.748;2023-02-22T06:39:50;94.72;;;40.13;;
20982;SDS011;10650;51.528;6.748;2023-02-22T06:42:17;122.70;;;43.92;;
20982;SDS011;10650;51.528;6.748;2023-02-22T06:44:45;100.07;;;40.47;;
20982;SDS011;10650;51.528;6.748;2023-02-22T06:47:14;126.78;;;43.05;;
20982;SDS011;10650;51.528;6.748;2023-02-22T06:49:42;85.82;;;34.97;;
20982;SDS011;10650;51.528;6.748;2023-02-22T06:52:10;74.57;;;34.25;;
20982;SDS011;10650;51.528;6.748;2023-02-22T06:54:37;98.22;;;37.13;;
20982;SDS011;10650;51.528;6.748;2023-02-22T06:57:07;109.60;;;40.72;;
20982;SDS011;10650;51.528;6.748;2023-02-22T06:59:35;91.40;;;38.00;;
20982;SDS011;10650;51.528;6.748;2023-02-22T07:02:03;98.57;;;38.22;;
20982;SDS011;10650;51.528;6.748;2023-02-22T07:04:31;84.63;;;35.50;;
20982;SDS011;10650;51.528;6.748;2023-02-22T07:07:02;68.53;;;32.00;;
20982;SDS011;10650;51.528;6.748;2023-02-22T07:09:30;106.78;;;39.05;;
20982;SDS011;10650;51.528;6.748;2023-02-22T07:11:58;91.55;;;37.85;;
20982;SDS011;10650;51.528;6.748;2023-02-22T07:14:27;96.10;;;36.88;;
20982;SDS011;10650;51.528;6.748;2023-02-22T07:16:56;69.88;;;32.78;;
20982;SDS011;10650;51.528;6.748;2023-02-22T07:19:23;108.50;;;39.30;;
20982;SDS011;10650;51.528;6.748;2023-02-22T07:21:51;123.93;;;41.25;;
20982;SDS011;10650;51.528;6.748;2023-02-22T07:24:24;118.80;;;40.67;;
20982;SDS011;10650;51.528;6.748;2023-02-22T07:26:56;105.50;;;40.85;;
20982;SDS011;10650;51.528;6.748;2023-02-22T07:29:23;106.32;;;38.97;;
20982;SDS011;10650;51.528;6.748;2023-02-22T07:31:52;90.57;;;37.13;;
20982;SDS011;10650;51.528;6.748;2023-02-22T07:34:20;74.70;;;34.33;;
20982;SDS011;10650;51.528;6.748;2023-02-22T07:36:48;69.78;;;32.78;;
20982;SDS011;10650;51.528;6.748;2023-02-22T07:39:16;86.63;;;36.30;;
20982;SDS011;10650;51.528;6.748;2023-02-22T07:41:43;66.63;;;32.97;;
20982;SDS011;10650;51.528;6.748;2023-02-22T07:44:11;73.38;;;32.70;;
20982;SDS011;10650;51.528;6.748;2023-02-22T07:46:39;66.97;;;32.10;;
20982;SDS011;10650;51.528;6.748;2023-02-22T07:49:08;48.10;;;25.77;;
20982;SDS011;10650;51.528;6.748;2023-02-22T07:51:36;50.85;;;27.85;;
20982;SDS011;10650;51.528;6.748;2023-02-22T07:54:03;47.97;;;27.23;;
20982;SDS011;10650;51.528;6.748;2023-02-22T07:56:31;42.35;;;25.50;;
20982;SDS011;10650;51.528;6.748;2023-02-22T07:58:59;54.70;;;30.20;;
20982;SDS011;10650;51.528;6.748;2023-02-22T08:01:27;67.22;;;31.85;;
20982;SDS011;10650;51.528;6.748;2023-02-22T08:03:55;51.90;;;28.08;;
20982;SDS011;10650;51.528;6.748;2023-02-22T08:06:24;63.75;;;33.90;;
20982;SDS011;10650;51.528;6.748;2023-02-22T08:08:53;59.03;;;30.92;;
20982;SDS011;10650;51.528;6.748;2023-02-22T08:11:21;67.10;;;33.55;;
20982;SDS011;10650;51.528;6.748;2023-02-22T08:13:49;56.10;;;30.42;;
20982;SDS011;10650;51.528;6.748;2023-02-22T08:16:17;54.47;;;30.05;;
20982;SDS011;10650;51.528;6.748;2023-02-22T08:18:44;53.22;;;30.38;;
20982;SDS011;10650;51.528;6.748;2023-02-22T08:21:12;54.97;;;29.90;;
20982;SDS011;10650;51.528;6.748;2023-02-22T08:23:42;48.35;;;27.45;;
20982;SDS011;10650;51.528;6.748;2023-02-22T08:26:10;50.35;;;28.02;;
20982;SDS011;10650;51.528;6.748;2023-02-22T08:28:40;45.90;;;27.38;;
20982;SDS011;10650;51.528;6.748;2023-02-22T08:31:08;38.80;;;24.33;;
20982;SDS011;10650;51.528;6.748;2023-02-22T08:33:36;40.92;;;25.45;;
20982;SDS011;10650;51.528;6.748;2023-02-22T08:36:04;43.60;;;26.10;;
20982;SDS011;10650;51.528;6.748;2023-02-22T08:38:32;36.97;;;23.42;;
20982;SDS011;10650;51.528;6.748;2023-02-22T08:41:01;37.90;;;23.42;;
20982;SDS011;10650;51.528;6.748;2023-02-22T08:43:29;36.28;;;23.92;;
20982;SDS011;10650;51.528;6.748;2023-02-22T08:45:57;36.78;;;24.85;;
20982;SDS011;10650;51.528;6.748;2023-02-22T08:48:24;39.47;;;25.17;;
20982;SDS011;10650;51.528;6.748;2023-02-22T08:50:52;33.70;;;22.30;;
20982;SDS011;10650;51.528;6.748;2023-02-22T08:53:21;32.38;;;23.00;;
20982;SDS011;10650;51.528;6.748;2023-02-22T08:55:49;33.47;;;21.42;;
20982;SDS011;10650;51.528;6.748;2023-02-22T08:58:18;30.35;;;20.67;;
20982;SDS011;10650;51.528;6.748;2023-02-22T09:00:46;30.05;;;21.15;;
20982;SDS011;10650;51.528;6.748;2023-02-22T09:03:14;28.38;;;19.77;;
20982;SDS011;10650;51.528;6.748;2023-02-22T09:05:42;31.58;;;20.35;;
20982;SDS011;10650;51.528;6.748;2023-02-22T09:08:11;32.03;;;22.02;;
20982;SDS011;10650;51.528;6.748;2023-02-22T09:10:38;31.15;;;21.27;;
20982;SDS011;10650;51.528;6.748;2023-02-22T09:13:07;30.73;;;21.80;;
20982;SDS011;10650;51.528;6.748;2023-02-22T09:15:36;29.90;;;21.33;;
20982;SDS011;10650;51.528;6.748;2023-02-22T09:18:06;27.13;;;20.25;;
20982;SDS011;10650;51.528;6.748;2023-02-22T09:20:35;29.08;;;20.15;;
20982;SDS011;10650;51.528;6.748;2023-02-22T09:23:04;31.42;;;20.52;;
20982;SDS011;10650;51.528;6.748;2023-02-22T09:25:32;32.25;;;21.73;;
20982;SDS011;10650;51.528;6.748;2023-02-22T09:28:01;28.67;;;20.65;;
20982;SDS011;10650;51.528;6.748;2023-02-22T09:30:30;23.42;;;17.02;;
20982;SDS011;10650;51.528;6.748;2023-02-22T09:33:01;29.02;;;20.05;;
20982;SDS011;10650;51.528;6.748;2023-02-22T09:35:30;26.90;;;19.93;;
20982;SDS011;10650;51.528;6.748;2023-02-22T09:38:02;28.88;;;19.95;;
20982;SDS011;10650;51.528;6.748;2023-02-22T09:40:32;27.88;;;20.23;;
20982;SDS011;10650;51.528;6.748;2023-02-22T09:43:09;28.80;;;20.73;;
20982;SDS011;10650;51.528;6.748;2023-02-22T09:45:47;27.02;;;20.35;;
20982;SDS011;10650;51.528;6.748;2023-02-22T09:48:30;30.25;;;20.48;;
20982;SDS011;10650;51.528;6.748;2023-02-22T09:51:01;30.67;;;20.25;;
20982;SDS011;10650;51.528;6.748;2023-02-22T09:53:38;28.00;;;20.30;;
20982;SDS011;10650;51.528;6.748;2023-02-22T09:56:11;28.92;;;20.30;;
20982;SDS011;10650;51.528;6.748;2023-02-22T09:58:44;30.13;;;19.90;;
20982;SDS011;10650;51.528;6.748;2023-02-22T10:01:17;31.92;;;20.05;;
20982;SDS011;10650;51.528;6.748;2023-02-22T10:03:54;27.00;;;20.30;;
20982;SDS011;10650;51.528;6.748;2023-02-22T10:06:27;29.58;;;21.58;;
20982;SDS011;10650;51.528;6.748;2023-02-22T10:08:59;32.55;;;20.98;;
20982;SDS011;10650;51.528;6.748;2023-02-22T10:11:41;31.02;;;21.58;;
20982;SDS011;10650;51.528;6.748;2023-02-22T10:14:25;30.20;;;20.88;;
20982;SDS011;10650;51.528;6.748;2023-02-22T10:17:03;30.48;;;20.00;;
20982;SDS011;10650;51.528;6.748;2023-02-22T10:19:46;28.02;;;20.42;;
20982;SDS011;10650;51.528;6.748;2023-02-22T10:22:31;28.17;;;20.15;;
20982;SDS011;10650;51.528;6.748;2023-02-22T10:25:17;27.75;;;20.38;;
20982;SDS011;10650;51.528;6.748;2023-02-22T10:27:51;28.85;;;20.85;;
20982;SDS011;10650;51.528;6.748;2023-02-22T10:30:23;30.65;;;21.38;;
20982;SDS011;10650;51.528;6.748;2023-02-22T10:33:02;29.58;;;20.45;;
20982;SDS011;10650;51.528;6.748;2023-02-22T10:35:37;28.65;;;20.25;;
20982;SDS011;10650;51.528;6.748;2023-02-22T10:38:10;28.85;;;20.27;;
20982;SDS011;10650;51.528;6.748;2023-02-22T10:40:42;30.90;;;20.85;;
20982;SDS011;10650;51.528;6.748;2023-02-22T10:43:12;29.83;;;19.73;;
20982;SDS011;10650;51.528;6.748;2023-02-22T10:45:40;31.90;;;21.00;;
20982;SDS011;10650;51.528;6.748;2023-02-22T10:48:09;28.67;;;19.55;;
20982;SDS011;10650;51.528;6.748;2023-02-22T10:50:42;27.85;;;20.23;;
20982;SDS011;10650;51.528;6.748;2023-02-22T10:53:11;30.75;;;20.83;;
20982;SDS011;10650;51.528;6.748;2023-02-22T10:58:39;25.27;;;18.08;;
20982;SDS011;10650;51.528;6.748;2023-02-22T11:01:19;27.30;;;18.55;;
20982;SDS011;10650;51.528;6.748;2023-02-22T11:03:58;26.13;;;17.73;;
20982;SDS011;10650;51.528;6.748;2023-02-22T11:06:30;25.00;;;17.00;;
20982;SDS011;10650;51.528;6.748;2023-02-22T11:09:03;24.85;;;17.30;;
20982;SDS011;10650;51.528;6.748;2023-02-22T11:11:40;27.60;;;18.25;;
20982;SDS011;10650;51.528;6.748;2023-02-22T11:14:09;25.85;;;17.20;;
20982;SDS011;10650;51.528;6.748;2023-02-22T11:16:39;22.50;;;16.88;;
20982;SDS011;10650;51.528;6.748;2023-02-22T11:19:11;25.88;;;16.33;;
20982;SDS011;10650;51.528;6.748;2023-02-22T11:21:47;24.98;;;17.42;;
20982;SDS011;10650;51.528;6.748;2023-02-22T11:24:19;22.77;;;16.67;;
20982;SDS011;10650;51.528;6.748;2023-02-22T11:26:50;23.50;;;16.40;;
20982;SDS011;10650;51.528;6.748;2023-02-22T11:29:23;23.77;;;17.23;;
20982;SDS011;10650;51.528;6.748;2023-02-22T11:31:54;23.48;;;15.55;;
20982;SDS011;10650;51.528;6.748;2023-02-22T11:34:30;21.90;;;14.95;;
20982;SDS011;10650;51.528;6.748;2023-02-22T11:37:15;23.98;;;15.65;;
20982;SDS011;10650;51.528;6.748;2023-02-22T11:40:06;21.35;;;15.23;;
20982;SDS011;10650;51.528;6.748;2023-02-22T11:42:42;20.45;;;14.50;;
20982;SDS011;10650;51.528;6.748;2023-02-22T11:45:12;19.65;;;13.73;;
20982;SDS011;10650;51.528;6.748;2023-02-22T11:47:50;19.80;;;14.02;;
20982;SDS011;10650;51.528;6.748;2023-02-22T11:50:21;21.70;;;14.38;;
20982;SDS011;10650;51.528;6.748;2023-02-22T11:53:03;19.27;;;14.18;;
20982;SDS011;10650;51.528;6.748;2023-02-22T11:55:45;18.48;;;12.45;;
20982;SDS011;10650;51.528;6.748;2023-02-22T11:58:25;15.73;;;10.30;;
20982;SDS011;10650;51.528;6.748;2023-02-22T12:01:07;12.35;;;8.70;;
20982;SDS011;10650;51.528;6.748;2023-02-22T12:03:53;12.80;;;8.15;;
20982;SDS011;10650;51.528;6.748;2023-02-22T12:06:40;12.38;;;8.00;;
20982;SDS011;10650;51.528;6.748;2023-02-22T12:09:19;13.50;;;8.15;;
20982;SDS011;10650;51.528;6.748;2023-02-22T12:11:55;12.20;;;8.25;;
20982;SDS011;10650;51.528;6.748;2023-02-22T12:14:29;12.52;;;8.57;;
20982;SDS011;10650;51.528;6.748;2023-02-22T12:17:14;12.13;;;7.95;;
20982;SDS011;10650;51.528;6.748;2023-02-22T12:19:49;12.23;;;8.57;;
20982;SDS011;10650;51.528;6.748;2023-02-22T12:22:22;14.43;;;9.00;;
20982;SDS011;10650;51.528;6.748;2023-02-22T12:24:56;15.93;;;9.73;;
20982;SDS011;10650;51.528;6.748;2023-02-22T12:27:35;15.98;;;10.05;;
20982;SDS011;10650;51.528;6.748;2023-02-22T12:30:10;14.27;;;9.65;;
20982;SDS011;10650;51.528;6.748;2023-02-22T12:32:45;14.00;;;9.27;;
20982;SDS011;10650;51.528;6.748;2023-02-22T12:37:50;15.75;;;10.68;;
20982;SDS011;10650;51.528;6.748;2023-02-22T12:40:26;15.77;;;10.90;;
20982;SDS011;10650;51.528;6.748;2023-02-22T12:43:01;19.15;;;11.68;;
20982;SDS011;10650;51.528;6.748;2023-02-22T12:45:34;18.95;;;11.93;;
20982;SDS011;10650;51.528;6.748;2023-02-22T12:48:15;20.55;;;11.93;;
20982;SDS011;10650;51.528;6.748;2023-02-22T12:50:52;23.02;;;13.40;;
20982;SDS011;10650;51.528;6.748;2023-02-22T12:53:24;23.87;;;16.53;;
20982;SDS011;10650;51.528;6.748;2023-02-22T12:55:59;24.00;;;13.85;;
20982;SDS011;10650;51.528;6.748;2023-02-22T12:58:43;18.45;;;12.48;;
20982;SDS011;10650;51.528;6.748;2023-02-22T13:01:16;21.00;;;12.75;;
20982;SDS011;10650;51.528;6.748;2023-02-22T13:03:47;20.10;;;12.60;;
20982;SDS011;10650;51.528;6.748;2023-02-22T13:06:22;17.23;;;11.90;;
20982;SDS011;10650;51.528;6.748;2023-02-22T13:09:02;22.50;;;13.23;;
20982;SDS011;10650;51.528;6.748;2023-02-22T13:11:45;22.70;;;13.43;;
20982;SDS011;10650;51.528;6.748;2023-02-22T13:14:30;21.17;;;12.93;;
20982;SDS011;10650;51.528;6.748;2023-02-22T13:17:12;17.73;;;10.98;;
20982;SDS011;10650;51.528;6.748;2023-02-22T13:19:50;18.23;;;11.70;;
20982;SDS011;10650;51.528;6.748;2023-02-22T13:22:26;17.33;;;12.05;;
20982;SDS011;10650;51.528;6.748;2023-02-22T13:25:01;20.60;;;12.93;;
20982;SDS011;10650;51.528;6.748;2023-02-22T13:27:37;15.65;;;10.60;;
20982;SDS011;10650;51.528;6.748;2023-02-22T13:30:13;16.90;;;11.45;;
20982;SDS011;10650;51.528;6.748;2023-02-22T13:32:50;16.63;;;10.40;;
20982;SDS011;10650;51.528;6.748;2023-02-22T13:35:37;17.70;;;11.00;;
20982;SDS011;10650;51.528;6.748;2023-02-22T13:38:34;18.20;;;10.65;;
20982;SDS011;10650;51.528;6.748;2023-02-22T13:41:33;16.75;;;9.93;;
20982;SDS011;10650;51.528;6.748;2023-02-22T13:44:26;13.57;;;8.85;;
20982;SDS011;10650;51.528;6.748;2023-02-22T13:47:19;15.95;;;9.68;;
20982;SDS011;10650;51.528;6.748;2023-02-22T13:50:25;15.18;;;10.65;;
20982;SDS011;10650;51.528;6.748;2023-02-22T13:53:09;15.13;;;10.85;;
20982;SDS011;10650;51.528;6.748;2023-02-22T13:55:45;16.02;;;11.00;;
20982;SDS011;10650;51.528;6.748;2023-02-22T13:58:18;18.20;;;11.27;;
20982;SDS011;10650;51.528;6.748;2023-02-22T14:00:49;19.08;;;12.40;;
20982;SDS011;10650;51.528;6.748;2023-02-22T14:03:36;22.92;;;14.48;;
20982;SDS011;10650;51.528;6.748;2023-02-22T14:06:08;18.38;;;12.05;;
20982;SDS011;10650;51.528;6.748;2023-02-22T14:08:41;16.48;;;11.73;;
20982;SDS011;10650;51.528;6.748;2023-02-22T14:14:16;18.08;;;11.25;;
20982;SDS011;10650;51.528;6.748;2023-02-22T14:17:10;19.13;;;11.82;;
20982;SDS011;10650;51.528;6.748;2023-02-22T14:22:55;32.03;;;23.40;;
20982;SDS011;10650;51.528;6.748;2023-02-22T14:25:31;20.73;;;13.75;;
20982;SDS011;10650;51.528;6.748;2023-02-22T14:28:06;50.72;;;35.63;;
20982;SDS011;10650;51.528;6.748;2023-02-22T14:30:36;40.10;;;28.45;;
20982;SDS011;10650;51.528;6.748;2023-02-22T14:36:10;26.08;;;19.20;;
20982;SDS011;10650;51.528;6.748;2023-02-22T14:38:39;28.63;;;20.73;;
20982;SDS011;10650;51.528;6.748;2023-02-22T14:41:11;17.42;;;13.98;;
20982;SDS011;10650;51.528;6.748;2023-02-22T14:43:44;18.27;;;13.05;;
20982;SDS011;10650;51.528;6.748;2023-02-22T14:46:21;18.67;;;12.82;;
20982;SDS011;10650;51.528;6.748;2023-02-22T14:48:54;17.20;;;11.52;;
20982;SDS011;10650;51.528;6.748;2023-02-22T14:51:30;17.15;;;11.73;;
20982;SDS011;10650;51.528;6.748;2023-02-22T14:54:08;15.60;;;11.35;;
20982;SDS011;10650;51.528;6.748;2023-02-22T14:56:43;16.48;;;11.82;;
20982;SDS011;10650;51.528;6.748;2023-02-22T14:59:19;18.60;;;13.05;;
20982;SDS011;10650;51.528;6.748;2023-02-22T15:01:56;18.17;;;12.88;;
20982;SDS011;10650;51.528;6.748;2023-02-22T15:04:37;18.77;;;13.32;;
20982;SDS011;10650;51.528;6.748;2023-02-22T15:07:18;18.80;;;12.68;;
20982;SDS011;10650;51.528;6.748;2023-02-22T15:12:49;18.88;;;13.90;;
20982;SDS011;10650;51.528;6.748;2023-02-22T15:15:20;19.65;;;14.40;;
20982;SDS011;10650;51.528;6.748;2023-02-22T15:17:53;19.35;;;13.65;;
20982;SDS011;10650;51.528;6.748;2023-02-22T15:20:22;16.92;;;12.32;;
20982;SDS011;10650;51.528;6.748;2023-02-22T15:22:58;16.20;;;12.93;;